Time;durP1;ratioP1;P1;durP2;ratioP2;P2;SDS_P1;SDS_P2;PMS_P1;PMS_P2;Temp;Humidity;BMP_temperature;BMP_pressure;BME280_temperature;BME280_humidity;BME280_pressure;Samples;Min_cycle;Max_cycle;Signal;HPM_P1;HPM_P2
2021/09/20 00:02:13;;;;;;;15.55;5.97;;;16.60;85.30;;;;;;5042990;28;20128;-80
2021/09/20 00:04:40;;;;;;;22.63;5.57;;;16.60;85.10;;;;;;5047653;28;20017;-78
2021/09/20 00:07:06;;;;;;;20.08;4.20;;;16.60;85.10;;;;;;5047345;28;20537;-83
2021/09/20 00:09:33;;;;;;;13.38;4.28;;;16.70;85.00;;;;;;5046662;28;20055;-81
2021/09/20 00:11:59;;;;;;;27.20;6.97;;;16.60;85.00;;;;;;5041799;28;20029;-84
2021/09/20 00:14:26;;;;;;;23.48;6.18;;;16.60;84.90;;;;;;5046766;28;20095;-83
2021/09/20 00:16:52;;;;;;;25.90;5.45;;;16.60;84.80;;;;;;5043537;28;20476;-82
2021/09/20 00:19:19;;;;;;;17.38;5.47;;;16.60;84.80;;;;;;5048977;28;20071;-83
2021/09/20 00:21:45;;;;;;;23.85;4.70;;;16.70;84.60;;;;;;5050059;28;20009;-83
2021/09/20 00:24:12;;;;;;;17.15;4.78;;;16.60;84.20;;;;;;5047963;28;20053;-82
2021/09/20 00:26:39;;;;;;;18.25;4.47;;;16.60;84.10;;;;;;5049965;28;20032;-84
2021/09/20 00:29:05;;;;;;;25.52;6.35;;;16.60;83.90;;;;;;5046000;28;20045;-86
2021/09/20 00:31:31;;;;;;;24.38;5.97;;;16.60;83.80;;;;;;5045405;28;20068;-84
2021/09/20 00:33:58;;;;;;;25.40;5.00;;;16.60;83.60;;;;;;5045851;28;20024;-83
2021/09/20 00:36:25;;;;;;;20.58;5.22;;;16.60;83.30;;;;;;5046962;28;20017;-84
2021/09/20 00:38:51;;;;;;;21.10;4.47;;;16.60;83.20;;;;;;5047916;28;20028;-79
2021/09/20 00:41:18;;;;;;;26.63;6.07;;;16.60;83.30;;;;;;5050121;28;20027;-82
2021/09/20 00:43:44;;;;;;;26.02;4.95;;;16.50;83.30;;;;;;5049758;28;20376;-82
2021/09/20 00:46:12;;;;;;;18.67;5.40;;;16.60;83.40;;;;;;5048536;28;20075;-86
2021/09/20 00:48:38;;;;;;;20.20;5.57;;;16.50;83.30;;;;;;5050240;28;20029;-78
2021/09/20 00:51:05;;;;;;;17.40;4.63;;;16.50;83.20;;;;;;5047765;28;20542;-83
2021/09/20 00:53:31;;;;;;;23.08;6.00;;;16.50;83.00;;;;;;5047614;28;20376;-85
2021/09/20 00:56:00;;;;;;;23.92;6.50;;;16.50;82.90;;;;;;5052721;28;20024;-83
2021/09/20 00:58:27;;;;;;;21.10;5.15;;;16.50;82.80;;;;;;5044726;28;20020;-82
2021/09/20 01:00:53;;;;;;;12.88;5.40;;;16.50;82.50;;;;;;5046792;28;20025;-85
2021/09/20 01:03:20;;;;;;;21.33;6.53;;;16.50;82.30;;;;;;5048320;28;20119;-84
2021/09/20 01:05:46;;;;;;;19.20;5.45;;;16.50;82.00;;;;;;5049573;28;20909;-78
2021/09/20 01:08:15;;;;;;;17.27;4.93;;;16.50;81.70;;;;;;5048044;28;20041;-81
2021/09/20 01:10:42;;;;;;;23.33;5.18;;;16.50;81.60;;;;;;5044104;28;20036;-83
2021/09/20 01:13:08;;;;;;;18.23;5.90;;;16.50;81.80;;;;;;5043641;28;20037;-81
2021/09/20 01:15:35;;;;;;;29.23;6.55;;;16.60;82.30;;;;;;5047938;28;20014;-72
2021/09/20 01:18:01;;;;;;;20.67;6.13;;;16.50;82.90;;;;;;5045310;28;20029;-77
2021/09/20 01:20:29;;;;;;;23.60;5.90;;;16.60;83.40;;;;;;5042742;28;20021;-77
2021/09/20 01:23:00;;;;;;;26.05;6.90;;;16.50;84.00;;;;;;5044276;28;20013;-75
2021/09/20 01:25:28;;;;;;;25.77;7.65;;;16.50;84.60;;;;;;5044519;28;20024;-77
2021/09/20 01:27:55;;;;;;;20.30;6.07;;;16.50;85.00;;;;;;5040904;28;20024;-77
2021/09/20 01:30:21;;;;;;;25.48;9.85;;;16.50;85.30;;;;;;5042625;28;20024;-77
2021/09/20 01:32:48;;;;;;;20.55;5.72;;;16.50;85.70;;;;;;5047636;28;20476;-73
2021/09/20 01:35:17;;;;;;;19.55;5.63;;;16.40;86.10;;;;;;5044919;28;20025;-77
2021/09/20 01:37:44;;;;;;;22.65;8.13;;;16.40;86.10;;;;;;5048010;28;20017;-76
2021/09/20 01:40:11;;;;;;;24.25;6.35;;;16.40;86.00;;;;;;5049647;28;20416;-77
2021/09/20 01:42:38;;;;;;;23.35;5.43;;;16.40;86.00;;;;;;5047143;28;20610;-78
2021/09/20 01:45:06;;;;;;;27.88;6.18;;;16.40;86.20;;;;;;5046802;28;20021;-78
2021/09/20 01:47:32;;;;;;;20.85;4.97;;;16.30;86.20;;;;;;5050516;28;20067;-78
2021/09/20 01:49:59;;;;;;;19.88;5.78;;;16.30;86.30;;;;;;5046310;28;20506;-77
2021/09/20 01:52:26;;;;;;;19.05;7.55;;;16.40;86.30;;;;;;5051117;28;20036;-78
2021/09/20 01:54:52;;;;;;;22.15;6.13;;;16.30;85.90;;;;;;5046574;28;20013;-72
2021/09/20 01:57:22;;;;;;;16.23;4.47;;;16.30;85.70;;;;;;5042531;28;20013;-74
2021/09/20 01:59:51;;;;;;;22.73;4.13;;;16.30;85.40;;;;;;5042764;28;20049;-73
2021/09/20 02:02:18;;;;;;;13.57;3.65;;;16.30;85.20;;;;;;5045358;28;20025;-73
2021/09/20 02:04:44;;;;;;;18.27;3.90;;;16.30;85.10;;;;;;5049757;28;20419;-76
2021/09/20 02:07:11;;;;;;;13.73;3.95;;;16.30;85.50;;;;;;5044118;28;20709;-73
2021/09/20 02:09:37;;;;;;;11.98;3.63;;;16.30;85.50;;;;;;5043742;28;20384;-76
2021/09/20 02:12:04;;;;;;;23.23;4.80;;;16.30;85.50;;;;;;5046842;28;20033;-77
2021/09/20 02:14:31;;;;;;;11.82;4.10;;;16.30;85.30;;;;;;5042275;28;20068;-77
2021/09/20 02:16:57;;;;;;;14.52;3.83;;;16.30;85.30;;;;;;5048537;28;20017;-76
2021/09/20 02:19:24;;;;;;;25.27;5.10;;;16.30;85.90;;;;;;5041142;28;20020;-76
2021/09/20 02:21:50;;;;;;;12.75;3.75;;;16.30;85.10;;;;;;5046750;28;20053;-76
2021/09/20 02:24:17;;;;;;;19.10;4.38;;;16.30;84.90;;;;;;5042849;28;20096;-77
2021/09/20 02:26:43;;;;;;;15.27;4.95;;;16.20;84.90;;;;;;5047417;28;20036;-73
2021/09/20 02:29:10;;;;;;;12.93;3.75;;;16.20;84.90;;;;;;5041785;28;20043;-78
2021/09/20 02:31:37;;;;;;;21.42;4.78;;;16.20;85.10;;;;;;5044349;28;20033;-77
2021/09/20 02:34:04;;;;;;;20.60;6.15;;;16.20;85.50;;;;;;5044619;28;20032;-77
2021/09/20 02:36:30;;;;;;;22.17;5.25;;;16.20;85.90;;;;;;5045353;28;20596;-78
2021/09/20 02:38:57;;;;;;;14.65;4.55;;;16.20;86.30;;;;;;5042078;28;20021;-74
2021/09/20 02:41:23;;;;;;;24.85;6.20;;;16.20;86.70;;;;;;5042809;28;20377;-78
2021/09/20 02:43:49;;;;;;;19.02;5.82;;;16.20;87.00;;;;;;5043660;28;20009;-76
2021/09/20 02:46:16;;;;;;;17.10;5.43;;;16.20;87.30;;;;;;5044740;28;20013;-77
2021/09/20 02:48:43;;;;;;;21.65;5.00;;;16.20;87.50;;;;;;5042326;28;20017;-78
2021/09/20 02:51:09;;;;;;;21.48;5.20;;;16.20;87.60;;;;;;5042915;28;20112;-77
2021/09/20 02:53:36;;;;;;;24.02;5.82;;;16.20;87.80;;;;;;5039668;28;20029;-77
2021/09/20 02:56:05;;;;;;;16.77;6.22;;;16.20;87.90;;;;;;5046682;28;20091;-72
2021/09/20 02:58:32;;;;;;;13.45;4.32;;;16.20;88.10;;;;;;5041008;28;20018;-77
2021/09/20 03:00:58;;;;;;;16.77;5.65;;;16.20;88.20;;;;;;5039928;28;20029;-77
2021/09/20 03:03:25;;;;;;;20.95;5.82;;;16.20;88.30;;;;;;5041741;28;20023;-76
2021/09/20 03:05:51;;;;;;;22.88;5.75;;;16.20;88.50;;;;;;5045644;28;20021;-76
2021/09/20 03:08:18;;;;;;;24.50;6.75;;;16.20;88.80;;;;;;5042412;28;20029;-76
2021/09/20 03:10:44;;;;;;;21.27;5.10;;;16.20;88.90;;;;;;5040644;28;20053;-77
2021/09/20 03:13:11;;;;;;;20.48;4.95;;;16.20;89.00;;;;;;5040457;28;20025;-76
2021/09/20 03:15:37;;;;;;;15.18;4.57;;;16.20;89.10;;;;;;5044870;28;20027;-77
2021/09/20 03:18:04;;;;;;;13.95;4.72;;;16.20;89.50;;;;;;5039362;28;20028;-74
2021/09/20 03:20:30;;;;;;;16.65;5.75;;;16.10;89.60;;;;;;5046260;28;20146;-76
2021/09/20 03:22:57;;;;;;;20.63;5.18;;;16.20;89.70;;;;;;5041178;28;20426;-72
2021/09/20 03:25:24;;;;;;;17.65;4.78;;;16.20;89.90;;;;;;5042847;28;20102;-77
2021/09/20 03:27:50;;;;;;;19.00;4.35;;;16.20;90.00;;;;;;5045037;28;20029;-77
2021/09/20 03:30:18;;;;;;;23.75;4.30;;;16.20;90.10;;;;;;5040916;28;20022;-76
2021/09/20 03:32:44;;;;;;;19.00;7.90;;;16.20;90.10;;;;;;5040757;28;20033;-76
2021/09/20 03:35:14;;;;;;;93.18;54.75;;;16.20;90.20;;;;;;5042967;28;20013;-76
2021/09/20 03:37:43;;;;;;;43.15;30.35;;;16.20;90.30;;;;;;5038497;28;20024;-73
2021/09/20 03:40:11;;;;;;;18.02;7.15;;;16.20;90.30;;;;;;5042527;28;20025;-76
2021/09/20 03:42:38;;;;;;;23.67;4.50;;;16.20;90.20;;;;;;5040422;28;20027;-77
2021/09/20 03:45:06;;;;;;;19.33;5.32;;;16.30;90.30;;;;;;5040242;28;20032;-76
2021/09/20 03:47:33;;;;;;;19.33;6.18;;;16.20;90.30;;;;;;5043589;28;20025;-77
2021/09/20 03:49:59;;;;;;;17.77;5.18;;;16.20;90.30;;;;;;5040505;28;20051;-77
2021/09/20 03:52:26;;;;;;;22.77;4.57;;;16.20;90.40;;;;;;5041982;28;20044;-77
2021/09/20 03:54:52;;;;;;;18.48;4.75;;;16.20;90.40;;;;;;5041151;28;20024;-76
2021/09/20 03:57:18;;;;;;;19.05;5.13;;;16.20;90.50;;;;;;5041179;28;20060;-76
2021/09/20 03:59:45;;;;;;;21.33;3.88;;;16.10;90.40;;;;;;5037498;28;20042;-77
2021/09/20 04:02:11;;;;;;;19.48;4.63;;;16.20;90.40;;;;;;5039733;28;20017;-80
2021/09/20 04:04:38;;;;;;;18.02;4.47;;;16.10;90.30;;;;;;5038184;28;20053;-77
2021/09/20 04:07:06;;;;;;;25.27;6.72;;;16.10;90.30;;;;;;5041933;28;20014;-75
2021/09/20 04:09:32;;;;;;;17.60;5.03;;;16.10;90.30;;;;;;5038888;28;20021;-73
2021/09/20 04:12:00;;;;;;;16.40;5.93;;;16.10;90.30;;;;;;5043372;28;20034;-74
2021/09/20 04:14:26;;;;;;;33.25;13.70;;;16.00;90.30;;;;;;5043740;28;20013;-73
2021/09/20 04:16:53;;;;;;;16.60;5.55;;;16.00;90.30;;;;;;5043568;28;20025;-76
2021/09/20 04:19:19;;;;;;;14.70;4.32;;;16.00;90.20;;;;;;5039229;28;20021;-77
2021/09/20 04:21:46;;;;;;;21.30;4.18;;;16.00;90.30;;;;;;5042341;28;20029;-81
2021/09/20 04:24:12;;;;;;;27.20;6.00;;;16.00;90.30;;;;;;5042363;28;20016;-75
2021/09/20 04:26:39;;;;;;;21.42;4.63;;;16.00;90.30;;;;;;5038988;28;20064;-74
2021/09/20 04:29:05;;;;;;;17.98;5.03;;;16.00;90.30;;;;;;5041347;28;20017;-73
2021/09/20 04:31:31;;;;;;;17.40;3.80;;;15.90;90.30;;;;;;5043396;28;20499;-74
2021/09/20 04:33:58;;;;;;;23.08;5.93;;;16.00;90.30;;;;;;5038992;28;20412;-75
2021/09/20 04:36:24;;;;;;;20.83;5.00;;;16.00;90.40;;;;;;5041147;28;20014;-71
2021/09/20 04:38:51;;;;;;;18.13;4.18;;;16.00;90.40;;;;;;5043765;28;20052;-76
2021/09/20 04:41:17;;;;;;;17.50;6.25;;;16.00;90.40;;;;;;5041465;28;20081;-72
2021/09/20 04:43:44;;;;;;;70.55;52.53;;;16.00;90.40;;;;;;5044724;28;20032;-73
2021/09/20 04:46:10;;;;;;;29.13;12.90;;;16.00;90.50;;;;;;5039095;28;20087;-72
2021/09/20 04:48:37;;;;;;;24.40;4.82;;;16.00;90.50;;;;;;5042380;28;20101;-74
2021/09/20 04:51:03;;;;;;;13.73;5.75;;;16.00;90.50;;;;;;5042235;28;20013;-79
2021/09/20 04:53:30;;;;;;;24.05;6.43;;;16.00;90.60;;;;;;5040201;28;20518;-74
2021/09/20 04:55:56;;;;;;;11.68;3.45;;;16.00;90.70;;;;;;5039822;28;20021;-74
2021/09/20 04:58:23;;;;;;;14.82;4.05;;;16.00;90.70;;;;;;5040166;28;20108;-74
2021/09/20 05:00:49;;;;;;;15.70;3.80;;;16.10;90.70;;;;;;5042916;28;20041;-74
2021/09/20 05:03:16;;;;;;;16.27;5.53;;;16.10;90.80;;;;;;5037222;28;20021;-74
2021/09/20 05:05:42;;;;;;;17.45;6.65;;;16.10;90.80;;;;;;5042238;28;20021;-74
2021/09/20 05:08:11;;;;;;;21.92;6.28;;;16.10;90.70;;;;;;5045530;28;20361;-73
2021/09/20 05:10:38;;;;;;;21.88;6.18;;;16.10;90.60;;;;;;5044401;28;20017;-75
2021/09/20 05:13:04;;;;;;;18.00;5.97;;;16.10;90.60;;;;;;5043307;28;20106;-74
2021/09/20 05:15:31;;;;;;;15.55;4.78;;;16.20;90.60;;;;;;5044896;28;20017;-71
2021/09/20 05:17:57;;;;;;;19.48;4.97;;;16.10;90.60;;;;;;5043500;28;20013;-74
2021/09/20 05:20:24;;;;;;;18.08;5.25;;;16.20;90.60;;;;;;5048441;28;20020;-73
2021/09/20 05:22:51;;;;;;;18.50;6.32;;;16.20;90.60;;;;;;5042314;28;20017;-74
2021/09/20 05:25:18;;;;;;;18.42;5.88;;;16.20;90.70;;;;;;5044850;28;20025;-74
2021/09/20 05:27:45;;;;;;;20.77;5.68;;;16.20;90.70;;;;;;5047063;28;20024;-74
2021/09/20 05:30:12;;;;;;;18.38;6.63;;;16.20;90.60;;;;;;5043483;28;20021;-72
2021/09/20 05:32:40;;;;;;;24.15;6.40;;;16.20;90.60;;;;;;5047813;28;20033;-73
2021/09/20 05:35:07;;;;;;;14.57;4.47;;;16.20;90.70;;;;;;5039233;28;20029;-73
2021/09/20 05:37:34;;;;;;;17.80;4.25;;;16.20;90.50;;;;;;5044331;28;20005;-72
2021/09/20 05:40:01;;;;;;;5.45;2.25;;;16.20;90.40;;;;;;5045799;28;20025;-73
2021/09/20 05:42:27;;;;;;;5.10;1.42;;;16.10;90.20;;;;;;5034719;28;20028;-73
2021/09/20 05:44:54;;;;;;;3.33;1.55;;;16.00;89.90;;;;;;5036516;28;20380;-72
2021/09/20 05:47:20;;;;;;;4.93;1.30;;;16.00;90.00;;;;;;5035884;28;20035;-72
2021/09/20 05:49:47;;;;;;;1.65;1.33;;;15.90;89.90;;;;;;5038836;28;20018;-71
2021/09/20 05:52:13;;;;;;;2.72;0.65;;;15.90;89.60;;;;;;5037021;28;20116;-72
2021/09/20 05:54:40;;;;;;;2.05;0.57;;;15.90;89.70;;;;;;5038376;28;20108;-71
2021/09/20 05:57:06;;;;;;;5.57;0.32;;;15.80;89.90;;;;;;5037088;28;20032;-71
2021/09/20 05:59:33;;;;;;;3.88;1.63;;;15.80;90.10;;;;;;5037863;28;20314;-71
2021/09/20 06:02:00;;;;;;;2.67;1.30;;;15.80;90.10;;;;;;5039131;28;20083;-71
2021/09/20 06:04:26;;;;;;;5.22;1.13;;;15.80;90.20;;;;;;5034320;28;20108;-71
2021/09/20 06:06:53;;;;;;;4.15;0.75;;;15.80;90.30;;;;;;5035585;28;20457;-71
2021/09/20 06:09:21;;;;;;;2.58;0.73;;;15.90;90.30;;;;;;5038218;28;20032;-71
2021/09/20 06:11:47;;;;;;;3.88;0.90;;;15.90;90.40;;;;;;5039505;28;20030;-71
2021/09/20 06:14:14;;;;;;;3.17;1.02;;;15.90;90.50;;;;;;5042334;28;20139;-71
2021/09/20 06:16:40;;;;;;;3.45;1.15;;;15.90;90.50;;;;;;5040701;28;20032;-71
2021/09/20 06:19:07;;;;;;;2.80;1.27;;;15.90;90.60;;;;;;5041506;28;20028;-70
2021/09/20 06:21:34;;;;;;;2.88;0.90;;;15.90;90.70;;;;;;5038884;28;20012;-71
2021/09/20 06:24:00;;;;;;;11.43;9.40;;;16.00;90.90;;;;;;5042891;28;20022;-71
2021/09/20 06:26:27;;;;;;;19.35;16.17;;;16.00;91.00;;;;;;5036851;28;20028;-71
2021/09/20 06:28:54;;;;;;;2.33;2.00;;;16.00;91.00;;;;;;5037141;28;20051;-71
2021/09/20 06:31:20;;;;;;;2.05;1.02;;;16.10;91.10;;;;;;5039048;28;20047;-71
2021/09/20 06:33:47;;;;;;;1.48;1.23;;;16.10;91.10;;;;;;5037125;28;20040;-72
2021/09/20 06:36:13;;;;;;;1.27;0.50;;;16.10;91.10;;;;;;5039115;28;20518;-71
2021/09/20 06:38:40;;;;;;;3.22;0.70;;;16.10;91.10;;;;;;5036842;28;20033;-72
2021/09/20 06:41:07;;;;;;;2.20;0.93;;;16.10;91.10;;;;;;5039547;28;20384;-71
2021/09/20 06:43:33;;;;;;;3.15;0.85;;;16.20;91.00;;;;;;5037169;28;20634;-72
2021/09/20 06:45:59;;;;;;;1.05;0.90;;;16.20;90.90;;;;;;5038942;28;20025;-71
2021/09/20 06:48:26;;;;;;;3.00;1.08;;;16.10;90.60;;;;;;5032747;28;20014;-71
2021/09/20 06:50:52;;;;;;;4.53;1.85;;;16.10;90.40;;;;;;5037690;28;20022;-71
2021/09/20 06:53:19;;;;;;;3.67;1.17;;;16.10;90.10;;;;;;5033481;28;20099;-73
2021/09/20 06:55:46;;;;;;;6.22;1.60;;;16.10;90.00;;;;;;5034960;28;20020;-71
2021/09/20 06:58:12;;;;;;;4.60;1.52;;;16.10;89.80;;;;;;5035635;28;20032;-72
2021/09/20 07:00:39;;;;;;;6.53;3.75;;;16.10;89.40;;;;;;5033756;28;20041;-72
2021/09/20 07:03:06;;;;;;;7.32;2.05;;;16.20;89.00;;;;;;5036640;28;20025;-72
2021/09/20 07:05:32;;;;;;;6.45;2.67;;;16.20;88.30;;;;;;5033648;28;20486;-72
2021/09/20 07:08:00;;;;;;;9.02;2.20;;;16.10;88.10;;;;;;5032643;28;20025;-72
2021/09/20 07:10:29;;;;;;;15.02;4.45;;;16.10;87.60;;;;;;5033837;28;20456;-73
2021/09/20 07:12:55;;;;;;;15.75;3.95;;;16.10;86.60;;;;;;5033626;28;20021;-72
2021/09/20 07:15:22;;;;;;;13.05;4.65;;;16.10;85.60;;;;;;5032261;28;20050;-73
2021/09/20 07:17:48;;;;;;;33.60;23.08;;;16.10;85.30;;;;;;5034234;28;20033;-74
2021/09/20 07:20:15;;;;;;;27.40;12.98;;;16.10;85.20;;;;;;5040507;28;20395;-75
2021/09/20 07:22:43;;;;;;;17.85;8.13;;;16.10;84.60;;;;;;5038696;28;20044;-72
2021/09/20 07:25:12;;;;;;;12.27;5.30;;;16.10;84.50;;;;;;5038169;28;20047;-75
2021/09/20 07:27:39;;;;;;;21.30;5.22;;;16.10;84.30;;;;;;5039639;28;20025;-75
2021/09/20 07:30:08;;;;;;;26.23;5.85;;;16.10;83.40;;;;;;5041530;28;20423;-74
2021/09/20 07:32:34;;;;;;;18.00;4.35;;;16.10;81.20;;;;;;5038392;28;20033;-75
2021/09/20 07:35:01;;;;;;;17.58;5.28;;;16.10;79.60;;;;;;5036411;28;20017;-74
2021/09/20 07:37:27;;;;;;;21.05;4.88;;;16.10;78.60;;;;;;5039558;28;20106;-74
2021/09/20 07:39:57;;;;;;;17.60;4.22;;;16.10;77.80;;;;;;5040299;28;20031;-76
2021/09/20 07:42:24;;;;;;;18.15;4.78;;;16.10;77.70;;;;;;5042816;28;20036;-73
2021/09/20 07:44:50;;;;;;;16.85;5.68;;;16.10;76.40;;;;;;5038703;28;20485;-72
2021/09/20 07:47:18;;;;;;;16.50;3.65;;;16.20;74.70;;;;;;5040429;28;20021;-74
2021/09/20 07:49:44;;;;;;;17.95;4.47;;;16.20;74.30;;;;;;5041288;28;20070;-73
2021/09/20 07:52:11;;;;;;;15.23;3.35;;;16.30;73.90;;;;;;5040678;28;20041;-73
2021/09/20 07:54:38;;;;;;;20.33;4.95;;;16.30;72.30;;;;;;5039105;28;20032;-73
2021/09/20 07:57:04;;;;;;;13.75;4.63;;;16.30;72.80;;;;;;5038729;28;20083;-74
2021/09/20 07:59:31;;;;;;;15.88;4.30;;;16.40;72.80;;;;;;5036591;28;20148;-73
2021/09/20 08:01:57;;;;;;;17.42;5.35;;;16.40;71.80;;;;;;5037373;28;20048;-74
2021/09/20 08:04:24;;;;;;;20.13;4.45;;;16.40;70.70;;;;;;5038138;28;20491;-73
2021/09/20 08:06:50;;;;;;;24.15;5.40;;;16.40;70.30;;;;;;5038083;28;20044;-73
2021/09/20 08:09:17;;;;;;;16.10;4.18;;;16.50;69.20;;;;;;5037431;28;20384;-73
2021/09/20 08:11:43;;;;;;;18.02;4.30;;;16.50;68.90;;;;;;5039583;28;20040;-73
2021/09/20 08:14:10;;;;;;;14.35;5.45;;;16.50;69.30;;;;;;5039305;28;20024;-73
2021/09/20 08:16:36;;;;;;;17.95;5.07;;;16.60;68.50;;;;;;5043831;28;20128;-74
2021/09/20 08:19:03;;;;;;;13.88;4.63;;;16.60;66.50;;;;;;5041022;28;20024;-73
2021/09/20 08:21:29;;;;;;;24.85;4.38;;;16.60;65.40;;;;;;5038314;28;20364;-73
2021/09/20 08:23:56;;;;;;;18.38;4.22;;;16.60;64.80;;;;;;5046015;28;20113;-73
2021/09/20 08:26:22;;;;;;;16.52;4.78;;;16.60;64.50;;;;;;5040852;28;20045;-73
2021/09/20 08:28:49;;;;;;;17.40;5.15;;;16.60;64.50;;;;;;5039337;28;20021;-73
2021/09/20 08:31:15;;;;;;;14.45;4.53;;;16.70;65.00;;;;;;5042226;28;20638;-73
2021/09/20 08:33:42;;;;;;;15.15;3.58;;;16.80;64.60;;;;;;5047076;28;20044;-76
2021/09/20 08:36:11;;;;;;;16.50;4.18;;;16.80;62.90;;;;;;5046294;28;20017;-75
2021/09/20 08:38:37;;;;;;;16.35;3.88;;;16.90;62.50;;;;;;5044390;28;20120;-73
2021/09/20 08:41:04;;;;;;;12.00;4.22;;;17.00;62.00;;;;;;5045794;28;20013;-74
2021/09/20 08:43:32;;;;;;;17.27;4.10;;;17.00;59.30;;;;;;5044989;28;20021;-76
2021/09/20 08:46:05;;;;;;;14.60;3.53;;;17.10;59.60;;;;;;5045809;28;20368;-74
2021/09/20 08:48:43;;;;;;;15.45;3.65;;;17.10;58.30;;;;;;5044856;28;20063;-75
2021/09/20 08:51:10;;;;;;;15.60;4.28;;;17.10;58.40;;;;;;5047315;28;20067;-74
2021/09/20 08:53:38;;;;;;;21.50;3.85;;;17.20;58.90;;;;;;5042504;28;20033;-77
2021/09/20 08:56:06;;;;;;;14.38;3.53;;;17.30;59.30;;;;;;5045831;28;20013;-77
2021/09/20 08:58:33;;;;;;;12.38;3.53;;;17.30;58.20;;;;;;5045182;28;20013;-76
2021/09/20 09:01:00;;;;;;;13.85;3.25;;;17.40;57.20;;;;;;5041766;28;20033;-74
2021/09/20 09:03:29;;;;;;;16.25;3.60;;;17.40;56.40;;;;;;5044681;28;20044;-77
2021/09/20 09:05:56;;;;;;;14.27;3.40;;;17.40;55.30;;;;;;5046312;28;20019;-74
2021/09/20 09:08:39;;;;;;;13.55;3.95;;;17.50;55.50;;;;;;5044671;28;20028;-72
2021/09/20 09:11:06;;;;;;;14.90;3.22;;;17.50;54.70;;;;;;5044883;28;20071;-73
2021/09/20 09:13:39;;;;;;;11.20;3.22;;;17.50;53.90;;;;;;5043580;28;20029;-76
2021/09/20 09:16:26;;;;;;;11.77;3.45;;;17.50;53.50;;;;;;5046705;28;20037;-74
2021/09/20 09:19:12;;;;;;;12.50;3.28;;;17.60;53.20;;;;;;5043941;28;20017;-76
2021/09/20 09:21:42;;;;;;;14.07;4.18;;;17.70;52.70;;;;;;5042993;28;20036;-77
2021/09/20 09:24:14;;;;;;;9.82;2.92;;;17.80;51.40;;;;;;5043022;28;20017;-75
2021/09/20 09:27:01;;;;;;;14.57;3.67;;;17.90;52.40;;;;;;5042697;28;20385;-76
2021/09/20 09:29:33;;;;;;;15.48;5.13;;;18.00;52.30;;;;;;5043233;28;20017;-77
2021/09/20 09:32:03;;;;;;;8.88;2.50;;;18.00;52.80;;;;;;5040819;28;20528;-75
2021/09/20 09:34:32;;;;;;;12.75;3.15;;;18.10;53.30;;;;;;5047760;28;20092;-76
2021/09/20 09:37:14;;;;;;;13.27;3.00;;;18.10;53.60;;;;;;5045500;28;20372;-76
2021/09/20 09:39:41;;;;;;;10.13;2.92;;;18.10;54.00;;;;;;5044921;28;20021;-76
2021/09/20 09:42:29;;;;;;;14.40;3.30;;;18.20;53.60;;;;;;5044170;28;20024;-75
2021/09/20 09:44:57;;;;;;;11.48;3.85;;;18.10;53.80;;;;;;5042633;28;20017;-74
2021/09/20 09:47:28;;;;;;;10.70;3.45;;;18.10;53.80;;;;;;5047073;28;20104;-76
2021/09/20 09:50:13;;;;;;;13.02;3.10;;;18.10;53.10;;;;;;5043767;28;20057;-77
2021/09/20 09:52:40;;;;;;;15.57;3.25;;;18.10;53.20;;;;;;5043698;28;20060;-77
2021/09/20 09:55:07;;;;;;;9.30;2.90;;;18.20;52.60;;;;;;5043378;28;20045;-76
2021/09/20 09:57:34;;;;;;;7.50;2.90;;;18.30;51.60;;;;;;5042081;28;20080;-76
2021/09/20 10:00:10;;;;;;;11.70;3.97;;;18.40;52.60;;;;;;5044305;28;20041;-75
2021/09/20 10:02:39;;;;;;;10.63;3.00;;;18.50;51.80;;;;;;5047291;28;20030;-78
2021/09/20 10:05:23;;;;;;;11.07;2.95;;;18.60;50.30;;;;;;5048759;28;20017;-75
2021/09/20 10:07:52;;;;;;;11.88;3.10;;;18.70;50.30;;;;;;5045163;28;20023;-77
2021/09/20 10:10:29;;;;;;;12.85;3.05;;;18.80;50.60;;;;;;5046644;28;20139;-76
2021/09/20 10:12:59;;;;;;;8.85;3.22;;;18.90;49.50;;;;;;5046103;28;20029;-76
2021/09/20 10:15:27;;;;;;;6.88;2.63;;;19.00;49.90;;;;;;5048501;28;20018;-76
2021/09/20 10:17:54;;;;;;;11.20;2.30;;;19.10;49.20;;;;;;5050511;28;20464;-75
2021/09/20 10:20:24;;;;;;;10.90;2.03;;;19.20;48.20;;;;;;5045691;28;20025;-76
2021/09/20 10:22:51;;;;;;;12.88;3.28;;;19.30;47.90;;;;;;5047847;28;20024;-76
2021/09/20 10:25:19;;;;;;;9.15;2.30;;;19.40;47.70;;;;;;5044913;28;20086;-76
2021/09/20 10:27:48;;;;;;;11.25;3.47;;;19.50;47.10;;;;;;5047711;28;20399;-77
2021/09/20 10:30:24;;;;;;;8.55;2.60;;;19.60;47.70;;;;;;5049485;28;20415;-75
2021/09/20 10:32:54;;;;;;;9.93;2.65;;;19.70;48.20;;;;;;5041135;28;20094;-76
2021/09/20 10:35:29;;;;;;;14.10;3.63;;;19.80;48.00;;;;;;5045039;28;20020;-76
2021/09/20 10:38:32;;;;;;;12.98;2.83;;;19.90;48.00;;;;;;5047477;28;20056;-76
2021/09/20 10:41:26;;;;;;;15.35;3.00;;;19.90;48.30;;;;;;5040272;28;20034;-76
2021/09/20 10:44:05;;;;;;;10.70;2.85;;;19.80;48.10;;;;;;5046220;28;20450;-75
2021/09/20 10:46:34;;;;;;;24.20;11.93;;;19.80;48.30;;;;;;5044912;28;20134;-76
2021/09/20 10:49:03;;;;;;;27.35;15.85;;;19.80;48.20;;;;;;5046821;28;20576;-74
2021/09/20 10:51:35;;;;;;;11.75;5.18;;;19.80;47.50;;;;;;5044956;28;20106;-75
2021/09/20 10:54:23;;;;;;;10.93;4.18;;;19.90;46.60;;;;;;5044824;28;20214;-75
2021/09/20 10:56:54;;;;;;;9.50;4.13;;;20.00;46.60;;;;;;5045866;28;20074;-74
2021/09/20 10:59:25;;;;;;;11.93;4.18;;;20.10;46.20;;;;;;5043629;28;20055;-75
2021/09/20 11:01:58;;;;;;;10.13;2.58;;;20.20;45.90;;;;;;5043154;28;20013;-74
2021/09/20 11:04:40;;;;;;;12.93;2.63;;;20.30;45.80;;;;;;5045308;28;20017;-75
2021/09/20 11:07:11;;;;;;;7.10;2.05;;;20.40;45.00;;;;;;5044723;28;20028;-75
2021/09/20 11:10:01;;;;;;;8.82;2.88;;;20.40;46.00;;;;;;5046180;28;20420;-74
2021/09/20 11:12:27;;;;;;;10.57;5.97;;;20.40;46.80;;;;;;5045338;28;20480;-74
2021/09/20 11:15:04;;;;;;;17.40;4.45;;;20.40;47.00;;;;;;5046249;28;20029;-75
2021/09/20 11:17:41;;;;;;;9.30;4.38;;;20.30;47.00;;;;;;5044430;28;20024;-75
2021/09/20 11:20:25;;;;;;;9.18;2.67;;;20.30;46.90;;;;;;5047886;28;20032;-75
2021/09/20 11:23:17;;;;;;;15.65;2.75;;;20.30;46.90;;;;;;5046877;28;20029;-75
2021/09/20 11:26:06;;;;;;;12.23;2.50;;;20.30;45.70;;;;;;5049088;28;20056;-75
2021/09/20 11:28:35;;;;;;;10.10;2.63;;;20.20;44.70;;;;;;5046752;28;20021;-75
2021/09/20 11:31:02;;;;;;;20.90;13.82;;;20.20;43.80;;;;;;5041608;28;20025;-75
2021/09/20 11:33:35;;;;;;;13.73;6.10;;;20.30;43.70;;;;;;5042256;28;20411;-76
2021/09/20 11:36:13;;;;;;;7.82;2.22;;;20.40;44.00;;;;;;5040629;28;20017;-80
2021/09/20 11:38:40;;;;;;;9.57;2.55;;;20.50;42.10;;;;;;5040955;28;20025;-77
2021/09/20 11:41:24;;;;;;;7.53;2.10;;;20.50;41.40;;;;;;5042712;28;20142;-82
2021/09/20 11:43:53;;;;;;;9.20;2.78;;;20.60;41.10;;;;;;5041240;28;20479;-79
2021/09/20 11:46:24;;;;;;;8.48;1.90;;;20.70;41.30;;;;;;5045289;28;20032;-79
2021/09/20 11:49:02;;;;;;;11.07;3.05;;;20.80;41.30;;;;;;5040045;28;20484;-82
2021/09/20 11:51:29;;;;;;;7.43;2.85;;;20.90;41.50;;;;;;5045081;28;20031;-80
2021/09/20 11:53:55;;;;;;;11.43;3.22;;;21.00;41.30;;;;;;5042504;28;20056;-79
2021/09/20 11:56:26;;;;;;;12.15;3.30;;;21.10;40.90;;;;;;5042093;28;20024;-80
2021/09/20 11:58:56;;;;;;;7.00;2.25;;;21.20;40.90;;;;;;5046054;28;20048;-82
2021/09/20 12:01:27;;;;;;;9.27;2.55;;;21.30;41.20;;;;;;5045832;28;20051;-84
2021/09/20 12:03:57;;;;;;;7.25;2.67;;;21.30;40.30;;;;;;5056739;28;20028;-80
2021/09/20 12:06:31;;;;;;;10.25;2.15;;;21.40;39.70;;;;;;5052461;28;20090;-81
2021/09/20 12:09:00;;;;;;;11.25;2.17;;;21.40;38.80;;;;;;5050886;28;20108;-79
2021/09/20 12:11:28;;;;;;;11.63;2.90;;;21.40;40.00;;;;;;5047885;28;20020;-82
2021/09/20 12:13:55;;;;;;;6.40;2.28;;;21.40;40.30;;;;;;5045496;28;20152;-78
2021/09/20 12:16:21;;;;;;;8.57;2.58;;;21.40;40.80;;;;;;5045403;28;20622;-83
2021/09/20 12:18:48;;;;;;;13.50;3.25;;;21.30;40.60;;;;;;5048873;28;20029;-82
2021/09/20 12:21:16;;;;;;;11.02;2.60;;;21.20;40.00;;;;;;5046695;28;20017;-82
2021/09/20 12:23:49;;;;;;;7.20;3.00;;;21.10;39.80;;;;;;5042701;28;20375;-84
2021/09/20 12:26:22;;;;;;;10.90;2.90;;;21.10;39.30;;;;;;5047227;28;20013;-78
2021/09/20 12:28:53;;;;;;;7.40;2.10;;;21.10;38.30;;;;;;5044347;28;20012;-79
2021/09/20 12:31:26;;;;;;;8.75;2.60;;;21.10;37.40;;;;;;5050317;28;20057;-80
2021/09/20 12:33:54;;;;;;;9.25;2.35;;;21.10;37.40;;;;;;5043757;28;20411;-80
2021/09/20 12:36:36;;;;;;;5.55;2.10;;;21.10;37.70;;;;;;5044957;28;20043;-79
2021/09/20 12:39:17;;;;;;;7.47;2.35;;;21.20;38.40;;;;;;5046118;28;20472;-80
2021/09/20 12:41:45;;;;;;;8.68;2.20;;;21.30;38.10;;;;;;5044443;28;20893;-79
2021/09/20 12:44:15;;;;;;;11.70;2.35;;;21.40;37.90;;;;;;5044145;28;20131;-78
2021/09/20 12:46:42;;;;;;;11.07;2.53;;;21.40;38.20;;;;;;5041600;28;20025;-80